Terminal Aerodrome Forecast
Issued by NWS

Home | Current Version | Previous Version | Text Only | Print | Product List | Glossary On
Versions: 1 2 3 4 5 6 7 8 9 10 11 12 13 14 15
000
FTAK31 PAFA 272332
TAFAQT
TAF
PAQT 272332Z 2800/2824 06012KT P6SM SCT090 BKN200
     FM280800 08015KT 1SM BR BKN007
     FM282000 08018KT P6SM SCT007=

USA.gov is the U.S. government's official web portal to all federal, state and local government web resources and services.